createdAt,value
2018-01-30T00:00:35.467Z,78.50
2018-01-30T00:03:05.851Z,78.77
2018-01-30T00:05:34.979Z,78.97
2018-01-30T00:08:04.963Z,79.33
2018-01-30T00:10:34.071Z,79.72
2018-01-30T00:13:03.448Z,79.88
2018-01-30T00:15:32.595Z,80.11
2018-01-30T00:18:02.845Z,80.28
2018-01-30T00:20:31.963Z,80.36
2018-01-30T00:23:01.185Z,80.44
2018-01-30T00:25:30.583Z,80.46
2018-01-30T00:28:00.546Z,80.60
2018-01-30T00:30:29.718Z,80.35
2018-01-30T00:32:58.890Z,80.30
2018-01-30T00:35:27.986Z,80.94
2018-01-30T00:37:57.432Z,81.35
2018-01-30T00:40:26.558Z,81.27
2018-01-30T00:42:56.723Z,81.66
2018-01-30T00:45:25.829Z,81.68
2018-01-30T00:47:54.927Z,82.04
2018-01-30T00:50:24.324Z,82.25
2018-01-30T00:52:53.462Z,82.00
2018-01-30T00:55:22.634Z,81.98
2018-01-30T00:57:52.039Z,81.58
2018-01-30T01:00:21.332Z,81.83
2018-01-30T01:02:50.493Z,81.70
2018-01-30T01:05:19.988Z,81.63
2018-01-30T01:07:49.089Z,82.00
2018-01-30T01:10:18.229Z,81.79
2018-01-30T01:12:48.956Z,81.50
2018-01-30T01:15:18.117Z,80.58
2018-01-30T01:17:48.943Z,79.79
2018-01-30T01:20:18.916Z,80.21
2018-01-30T01:22:48.901Z,80.23
2018-01-30T01:25:18.044Z,80.95
2018-01-30T01:27:47.560Z,80.59
2018-01-30T01:30:16.653Z,80.18
2018-01-30T01:32:46.840Z,80.22
2018-01-30T01:35:16.484Z,79.85
2018-01-30T01:37:45.774Z,78.77
2018-01-30T01:40:14.904Z,78.29
2018-01-30T01:42:44.524Z,77.52
2018-01-30T01:45:13.729Z,76.97
2018-01-30T01:47:42.871Z,76.30
2018-01-30T01:50:12.291Z,74.50
2018-01-30T01:52:41.452Z,73.47
2018-01-30T01:55:10.665Z,73.43
2018-01-30T01:57:40.155Z,73.98
2018-01-30T02:00:09.246Z,73.82
2018-01-30T02:03:08.876Z,72.84
2018-01-30T02:05:38.592Z,72.64
2018-01-30T02:08:07.908Z,72.82
2018-01-30T02:10:37.043Z,73.24
2018-01-30T02:13:06.436Z,73.51
2018-01-30T02:15:35.517Z,73.48
2018-01-30T02:18:05.499Z,73.41
2018-01-30T02:20:34.951Z,73.08
2018-01-30T02:23:04.956Z,73.30
2018-01-30T02:25:34.077Z,73.86
2018-01-30T02:28:04.543Z,74.29
2018-01-30T02:30:33.660Z,74.66
2018-01-30T02:33:03.861Z,74.72
2018-01-30T02:35:33.561Z,74.58
2018-01-30T02:38:03.397Z,74.24
2018-01-30T02:40:32.496Z,74.11
2018-01-30T02:43:02.030Z,73.03
2018-01-30T02:45:31.134Z,71.90
2018-01-30T02:48:00.233Z,71.33
2018-01-30T02:50:29.609Z,70.13
2018-01-30T02:52:58.758Z,70.59
2018-01-30T02:55:27.870Z,69.73
2018-01-30T02:57:57.252Z,69.59
2018-01-30T03:00:26.424Z,69.87
2018-01-30T03:02:55.625Z,69.63
2018-01-30T03:05:25.056Z,69.77
2018-01-30T03:07:54.288Z,69.54
2018-01-30T03:10:23.436Z,69.35
2018-01-30T03:12:52.803Z,69.87
2018-01-30T03:15:22.081Z,69.33
2018-01-30T03:17:51.187Z,69.31
2018-01-30T03:20:20.575Z,69.65
2018-01-30T03:22:49.695Z,69.68
2018-01-30T03:25:18.779Z,69.84
2018-01-30T03:27:49.387Z,69.92
2018-01-30T03:30:18.472Z,70.21
2018-01-30T03:32:47.588Z,70.14
2018-01-30T03:35:17.004Z,69.76
2018-01-30T03:37:46.261Z,69.47
2018-01-30T03:40:15.383Z,69.06
2018-01-30T03:42:44.904Z,68.65
2018-01-30T03:45:13.963Z,68.45
2018-01-30T03:47:43.187Z,68.56
2018-01-30T03:50:12.565Z,68.37
2018-01-30T03:52:41.810Z,68.31
2018-01-30T03:55:10.947Z,68.26
2018-01-30T03:57:40.380Z,68.44
2018-01-30T04:00:09.651Z,68.61
2018-01-30T04:02:38.823Z,68.50
2018-01-30T04:05:08.185Z,68.47
2018-01-30T04:07:37.310Z,69.07
2018-01-30T04:10:06.963Z,68.60
2018-01-30T04:12:36.403Z,68.91
2018-01-30T04:15:05.810Z,68.78
2018-01-30T04:17:34.944Z,68.84
2018-01-30T04:20:05.440Z,68.95
2018-01-30T04:22:35.746Z,69.13
2018-01-30T04:25:04.994Z,69.44
2018-01-30T04:27:34.420Z,69.32
2018-01-30T04:30:05.615Z,69.01
2018-01-30T04:32:34.741Z,68.84
2018-01-30T04:35:04.465Z,69.64
2018-01-30T04:39:56.785Z,69.08
2018-01-30T04:42:26.616Z,69.30
2018-01-30T04:44:55.781Z,69.19
2018-01-30T04:47:24.865Z,69.20
2018-01-30T04:49:55.199Z,69.24
2018-01-30T04:52:24.310Z,69.08
2018-01-30T04:54:53.711Z,69.40
2018-01-30T04:57:22.811Z,69.20
2018-01-30T04:59:51.928Z,69.33
2018-01-30T05:02:21.312Z,69.79
2018-01-30T05:04:50.440Z,69.37
2018-01-30T05:07:19.916Z,69.86
2018-01-30T05:09:49.961Z,70.02
2018-01-30T05:12:19.076Z,69.60
2018-01-30T05:14:48.222Z,69.37
2018-01-30T05:17:17.366Z,69.52
2018-01-30T05:19:46.935Z,69.83
2018-01-30T05:22:16.013Z,69.82
2018-01-30T05:24:45.259Z,69.76
2018-01-30T05:27:14.654Z,69.94
2018-01-30T05:29:43.889Z,70.58
2018-01-30T05:32:12.989Z,70.72
2018-01-30T05:34:42.420Z,70.78
2018-01-30T05:37:11.559Z,70.69
2018-01-30T05:39:40.675Z,70.29
2018-01-30T05:42:10.122Z,70.55
2018-01-30T05:44:39.264Z,70.67
2018-01-30T05:47:08.381Z,70.63
2018-01-30T05:49:37.838Z,70.53
2018-01-30T05:52:06.959Z,71.00
2018-01-30T05:54:36.090Z,70.78
2018-01-30T05:57:05.491Z,70.86
2018-01-30T05:59:34.611Z,71.01
2018-01-30T06:02:04.855Z,71.21
2018-01-30T06:04:34.300Z,71.44
2018-01-30T06:07:03.856Z,71.35
2018-01-30T06:09:32.982Z,71.22
2018-01-30T06:12:05.271Z,71.43
2018-01-30T06:14:34.413Z,71.59
2018-01-30T06:17:04.202Z,71.60
2018-01-30T06:19:33.682Z,72.02
2018-01-30T06:22:03.389Z,72.06
2018-01-30T06:24:32.501Z,71.79
2018-01-30T06:27:04.280Z,72.52
2018-01-30T06:29:33.415Z,71.92
2018-01-30T06:32:04.806Z,71.71
2018-01-30T06:34:35.313Z,71.56
2018-01-30T06:37:04.928Z,71.74
2018-01-30T06:39:34.329Z,71.01
2018-01-30T06:42:04.443Z,70.62
2018-01-30T06:44:33.614Z,70.48
2018-01-30T06:47:03.667Z,70.76
2018-01-30T06:49:32.903Z,71.03
2018-01-30T06:52:04.862Z,71.46
2018-01-30T06:54:34.323Z,71.54
2018-01-30T06:57:03.962Z,71.06
2018-01-30T06:59:33.066Z,70.57
2018-01-30T07:02:03.130Z,69.90
2018-01-30T07:04:32.242Z,70.31
2018-01-30T07:07:01.976Z,70.31
2018-01-30T07:09:31.613Z,70.49
2018-01-30T07:12:02.200Z,70.64
2018-01-30T07:14:31.534Z,70.54
2018-01-30T07:17:01.571Z,70.60
2018-01-30T07:19:30.692Z,71.16
2018-01-30T07:22:00.085Z,70.77
2018-01-30T07:24:29.510Z,70.55
2018-01-30T07:26:58.838Z,70.87
2018-01-30T07:29:28.454Z,70.71
2018-01-30T07:32:01.061Z,70.69
2018-01-30T07:34:30.372Z,70.29
2018-01-30T07:36:59.606Z,70.28
2018-01-30T07:39:28.764Z,69.07
2018-01-30T07:41:58.406Z,68.13
2018-01-30T07:44:27.906Z,66.83
2018-01-30T07:46:57.327Z,65.41
2018-01-30T07:49:26.921Z,62.74
2018-01-30T07:51:56.356Z,60.64
2018-01-30T07:54:25.834Z,58.20
2018-01-30T07:56:56.008Z,56.53
2018-01-30T07:59:25.930Z,54.71
2018-01-30T08:01:57.094Z,53.21
2018-01-30T08:04:26.295Z,52.64
2018-01-30T08:06:56.192Z,50.85
2018-01-30T08:09:25.332Z,49.38
2018-01-30T08:11:54.519Z,48.20
2018-01-30T08:14:23.980Z,46.21
2018-01-30T08:16:53.098Z,43.69
2018-01-30T08:19:22.254Z,42.74
2018-01-30T08:21:51.719Z,41.62
2018-01-30T08:24:20.933Z,40.62
2018-01-30T08:26:51.424Z,41.60
2018-01-30T08:29:21.965Z,39.92
2018-01-30T08:31:51.091Z,39.59
2018-01-30T08:34:20.559Z,39.61
2018-01-30T08:36:50.000Z,41.04
2018-01-30T08:39:19.596Z,41.31
2018-01-30T08:41:48.745Z,42.18
2018-01-30T08:44:18.868Z,41.89
2018-01-30T08:46:48.308Z,43.87
2018-01-30T08:49:17.500Z,43.60
2018-01-30T08:51:48.001Z,44.52
2018-01-30T08:54:17.180Z,45.99
2018-01-30T08:56:46.977Z,46.26
2018-01-30T08:59:16.340Z,45.61
2018-01-30T09:01:45.848Z,45.55
2018-01-30T09:04:15.264Z,45.51
2018-01-30T09:06:45.925Z,47.46
2018-01-30T09:09:15.067Z,46.74
2018-01-30T09:11:44.836Z,47.83
2018-01-30T09:14:13.959Z,48.49
2018-01-30T09:16:43.207Z,49.36
2018-01-30T09:19:13.262Z,50.86
2018-01-30T09:21:42.411Z,50.90
2018-01-30T09:24:11.524Z,50.49
2018-01-30T09:26:40.979Z,49.97
2018-01-30T09:29:10.115Z,50.29
2018-01-30T09:31:39.321Z,50.46
2018-01-30T09:34:08.771Z,52.07
2018-01-30T09:36:37.937Z,54.06
2018-01-30T09:39:07.368Z,53.89
2018-01-30T09:41:36.766Z,53.89
2018-01-30T09:44:06.695Z,53.33
2018-01-30T09:46:35.819Z,54.50
2018-01-30T09:49:06.784Z,53.79
2018-01-30T09:51:36.207Z,52.91
2018-01-30T09:54:06.030Z,53.48
2018-01-30T09:56:35.508Z,53.06
2018-01-30T09:59:04.980Z,53.28
2018-01-30T10:01:34.106Z,52.40
2018-01-30T10:04:04.608Z,52.78
2018-01-30T10:06:33.728Z,53.68
2018-01-30T10:09:03.492Z,53.55
2018-01-30T10:11:32.638Z,52.93
2018-01-30T10:14:02.832Z,54.31
2018-01-30T10:16:32.281Z,52.85
2018-01-30T10:19:02.224Z,51.68
2018-01-30T10:21:31.336Z,50.84
2018-01-30T10:24:01.148Z,51.86
2018-01-30T10:26:30.344Z,52.07
2018-01-30T10:29:00.498Z,52.79
2018-01-30T10:31:30.071Z,52.38
2018-01-30T10:33:59.179Z,53.31
2018-01-30T10:36:29.258Z,52.22
2018-01-30T10:38:58.689Z,52.93
2018-01-30T10:41:27.816Z,52.08
2018-01-30T10:43:56.954Z,52.00
2018-01-30T10:46:26.437Z,52.34
2018-01-30T10:48:55.655Z,52.21
2018-01-30T10:51:24.810Z,51.43
2018-01-30T10:53:54.633Z,51.17
2018-01-30T10:56:23.783Z,52.90
2018-01-30T10:58:53.751Z,52.81
2018-01-30T11:01:23.165Z,51.82
2018-01-30T11:03:52.307Z,51.01
2018-01-30T11:06:22.057Z,51.36
2018-01-30T11:08:51.466Z,53.04
2018-01-30T11:11:20.607Z,51.27
2018-01-30T11:13:49.759Z,51.46
2018-01-30T11:16:18.919Z,51.17
2018-01-30T11:18:48.592Z,50.83
2018-01-30T11:21:18.172Z,50.77
2018-01-30T11:23:48.364Z,50.24
2018-01-30T11:26:17.702Z,50.39
2018-01-30T11:28:47.220Z,50.52
2018-01-30T11:31:16.398Z,51.89
2018-01-30T11:33:45.996Z,52.02
2018-01-30T11:36:15.176Z,52.57
2018-01-30T11:38:44.582Z,52.84
2018-01-30T11:41:14.099Z,53.43
2018-01-30T11:43:43.286Z,53.14
2018-01-30T11:46:12.410Z,52.49
2018-01-30T11:48:41.847Z,52.11
2018-01-30T11:51:11.151Z,51.94
2018-01-30T11:53:40.293Z,52.65
2018-01-30T11:56:09.989Z,53.13
2018-01-30T11:58:39.166Z,52.57
2018-01-30T12:01:08.345Z,53.90
2018-01-30T12:03:37.812Z,52.15
2018-01-30T12:06:06.992Z,51.19
2018-01-30T12:08:36.152Z,50.80
2018-01-30T12:11:06.642Z,51.71
2018-01-30T12:13:35.842Z,51.39
2018-01-30T12:16:07.451Z,51.21
2018-01-30T12:18:36.893Z,52.89
2018-01-30T12:21:06.364Z,52.40
2018-01-30T12:23:35.776Z,51.93
2018-01-30T12:26:06.250Z,51.64
2018-01-30T12:28:35.465Z,52.30
2018-01-30T12:31:06.253Z,52.95
2018-01-30T12:33:36.877Z,52.09
2018-01-30T12:36:06.265Z,52.26
2018-01-30T12:38:35.565Z,52.65
2018-01-30T12:41:06.361Z,53.22
2018-01-30T12:43:35.524Z,53.18
2018-01-30T12:46:06.575Z,53.79
2018-01-30T12:48:35.859Z,52.90
2018-01-30T12:51:07.530Z,53.13
2018-01-30T12:53:37.116Z,53.51
2018-01-30T12:56:06.286Z,54.79
2018-01-30T12:58:35.482Z,54.95
2018-01-30T13:01:05.374Z,56.91
2018-01-30T13:03:34.539Z,56.13
2018-01-30T13:06:05.416Z,55.47
2018-01-30T13:08:34.886Z,55.19
2018-01-30T13:11:04.530Z,55.15
2018-01-30T13:13:33.749Z,54.61
2018-01-30T13:16:04.565Z,52.48
2018-01-30T13:18:33.724Z,52.66
2018-01-30T13:21:05.243Z,51.15
2018-01-30T13:23:34.663Z,51.58
2018-01-30T13:26:05.184Z,52.94
2018-01-30T13:28:34.613Z,53.39
2018-01-30T13:31:05.256Z,54.52
2018-01-30T13:33:35.131Z,55.13
2018-01-30T13:36:07.938Z,55.71
2018-01-30T13:38:37.404Z,55.81
2018-01-30T13:41:06.630Z,55.12
2018-01-30T13:43:35.785Z,55.63
2018-01-30T13:46:06.093Z,55.35
2018-01-30T13:48:35.283Z,55.18
2018-01-30T13:51:05.549Z,55.71
2018-01-30T13:53:34.755Z,55.28
2018-01-30T13:56:05.878Z,55.74
2018-01-30T13:58:36.294Z,55.85
2018-01-30T14:01:06.624Z,55.61
2018-01-30T14:03:36.006Z,56.32
2018-01-30T14:06:06.265Z,56.67
2018-01-30T14:08:35.371Z,57.63
2018-01-30T14:11:04.965Z,57.99
2018-01-30T14:13:34.533Z,58.04
2018-01-30T14:16:04.542Z,57.38
2018-01-30T14:18:33.851Z,58.40
2018-01-30T14:21:03.650Z,58.59
2018-01-30T14:23:32.884Z,58.19
2018-01-30T14:26:03.252Z,57.90
2018-01-30T14:28:32.893Z,57.78
2018-01-30T14:31:02.606Z,57.99
2018-01-30T14:33:31.776Z,58.62
2018-01-30T14:36:01.677Z,59.04
2018-01-30T14:38:31.078Z,58.89
2018-01-30T14:41:01.573Z,60.21
2018-01-30T14:43:31.435Z,60.04
2018-01-30T14:46:00.656Z,60.25
2018-01-30T14:48:29.821Z,60.37
2018-01-30T14:51:00.414Z,60.45
2018-01-30T14:53:29.565Z,60.61
2018-01-30T14:55:58.877Z,60.71
2018-01-30T14:58:28.597Z,61.11
2018-01-30T15:00:57.779Z,61.69
2018-01-30T15:03:26.936Z,62.31
2018-01-30T15:08:27.073Z,62.73
2018-01-30T15:10:56.790Z,62.74
2018-01-30T15:13:26.245Z,62.60
2018-01-30T15:15:55.421Z,63.63
2018-01-30T15:18:25.248Z,63.52
2018-01-30T15:20:55.568Z,63.53
2018-01-30T15:23:25.065Z,63.68
2018-01-30T15:25:55.847Z,63.74
2018-01-30T15:28:25.496Z,63.94
2018-01-30T15:30:54.644Z,64.10
2018-01-30T15:33:24.154Z,64.25
2018-01-30T15:38:17.327Z,64.73
2018-01-30T15:40:47.455Z,65.32
2018-01-30T15:43:18.214Z,65.38
2018-01-30T15:45:47.983Z,66.52
2018-01-30T15:48:17.681Z,66.92
2018-01-30T15:50:47.019Z,66.86
2018-01-30T15:53:16.183Z,67.71
2018-01-30T15:55:45.981Z,67.50
2018-01-30T15:58:15.113Z,67.29
2018-01-30T16:00:44.325Z,66.92
2018-01-30T16:03:13.585Z,66.59
2018-01-30T16:05:42.778Z,66.99
2018-01-30T16:08:11.909Z,67.67
2018-01-30T16:10:41.418Z,67.59
2018-01-30T16:13:10.751Z,67.48
2018-01-30T16:15:39.975Z,67.65
2018-01-30T16:18:09.238Z,67.58
2018-01-30T16:20:40.454Z,68.10
2018-01-30T16:23:10.050Z,68.56
2018-01-30T16:25:39.327Z,68.49
2018-01-30T16:28:09.150Z,68.19
2018-01-30T16:30:39.008Z,67.93
2018-01-30T16:33:08.279Z,67.71
2018-01-30T16:35:37.516Z,67.51
2018-01-30T16:38:07.727Z,66.97
2018-01-30T16:40:37.264Z,66.87
2018-01-30T16:43:06.558Z,66.57
2018-01-30T16:45:36.233Z,66.70
2018-01-30T16:48:08.635Z,67.13
2018-01-30T16:50:38.050Z,66.94
2018-01-30T16:53:08.207Z,66.92
2018-01-30T16:55:37.386Z,67.12
2018-01-30T16:58:07.666Z,67.00
2018-01-30T17:00:36.862Z,66.77
2018-01-30T17:03:06.032Z,67.09
2018-01-30T17:05:35.629Z,67.01
2018-01-30T17:08:07.873Z,66.86
2018-01-30T17:10:37.796Z,66.96
2018-01-30T17:13:07.322Z,66.79
2018-01-30T17:15:36.482Z,66.91
2018-01-30T17:18:06.967Z,67.28
2018-01-30T17:20:36.876Z,67.46
2018-01-30T17:23:06.285Z,67.22
2018-01-30T17:25:35.418Z,67.18
2018-01-30T17:28:05.933Z,67.26
2018-01-30T17:30:35.113Z,67.29
2018-01-30T17:33:04.541Z,67.58
2018-01-30T17:35:33.988Z,67.81
2018-01-30T17:38:04.042Z,67.83
2018-01-30T17:40:33.186Z,67.73
2018-01-30T17:43:02.895Z,67.57
2018-01-30T17:45:32.210Z,67.79
2018-01-30T17:48:03.563Z,68.00
2018-01-30T17:50:35.223Z,68.22
2018-01-30T17:53:04.892Z,68.29
2018-01-30T17:55:34.608Z,68.00
2018-01-30T17:58:05.513Z,68.26
2018-01-30T18:00:34.754Z,68.34
2018-01-30T18:03:06.472Z,68.29
2018-01-30T18:05:35.911Z,68.16
2018-01-30T18:08:05.993Z,68.23
2018-01-30T18:10:35.530Z,68.51
2018-01-30T18:13:04.699Z,68.38
2018-01-30T18:15:33.898Z,68.45
2018-01-30T18:18:05.429Z,68.46
2018-01-30T18:20:34.647Z,68.12
2018-01-30T18:23:04.053Z,68.14
2018-01-30T18:25:33.214Z,67.81
2018-01-30T18:28:03.383Z,67.93
2018-01-30T18:30:32.917Z,68.03
2018-01-30T18:33:02.687Z,67.95
2018-01-30T18:35:31.844Z,67.92
2018-01-30T18:38:06.973Z,67.73
2018-01-30T18:40:36.852Z,67.82
2018-01-30T18:43:06.379Z,68.02
2018-01-30T18:45:36.044Z,68.07
2018-01-30T18:48:06.001Z,68.53
2018-01-30T18:50:35.421Z,68.37
2018-01-30T18:53:06.214Z,68.45
2018-01-30T18:55:35.378Z,68.56
2018-01-30T18:58:05.965Z,68.52
2018-01-30T19:00:35.136Z,68.66
2018-01-30T19:03:04.627Z,68.78
2018-01-30T19:05:34.674Z,68.87
2018-01-30T19:08:06.135Z,69.20
2018-01-30T19:10:35.513Z,69.45
2018-01-30T19:13:06.820Z,69.60
2018-01-30T19:15:36.003Z,70.23
2018-01-30T19:18:07.189Z,70.50
2018-01-30T19:20:36.671Z,70.45
2018-01-30T19:23:06.233Z,70.48
2018-01-30T19:25:40.143Z,71.04
2018-01-30T19:28:10.439Z,71.00
2018-01-30T19:30:40.448Z,71.00
2018-01-30T19:33:10.266Z,71.10
2018-01-30T19:38:09.683Z,71.66
2018-01-30T19:40:39.374Z,71.70
2018-01-30T19:43:08.569Z,71.84
2018-01-30T19:45:37.815Z,72.03
2018-01-30T19:48:07.738Z,72.05
2018-01-30T19:50:36.984Z,72.13
2018-01-30T19:53:06.351Z,71.99
2018-01-30T19:55:36.554Z,72.05
2018-01-30T19:58:09.426Z,72.18
2018-01-30T20:00:40.003Z,72.41
2018-01-30T20:03:09.417Z,72.62
2018-01-30T20:05:39.455Z,72.99
2018-01-30T20:08:09.284Z,73.47
2018-01-30T20:10:39.210Z,74.18
2018-01-30T20:13:08.515Z,74.34
2018-01-30T20:15:38.031Z,74.87
2018-01-30T20:18:07.204Z,76.06
2018-01-30T20:20:36.411Z,75.92
2018-01-30T20:26:09.379Z,76.60
2018-01-30T20:28:39.039Z,76.81
2018-01-30T20:31:08.712Z,76.51
2018-01-30T20:33:37.975Z,76.52
2018-01-30T20:36:11.768Z,76.65
2018-01-30T20:38:40.947Z,76.68
2018-01-30T20:41:10.124Z,77.40
2018-01-30T20:43:39.690Z,77.62
2018-01-30T20:46:08.912Z,77.30
2018-01-30T20:48:38.216Z,77.31
2018-01-30T20:51:08.038Z,77.32
2018-01-30T20:53:37.668Z,77.76
2018-01-30T20:56:06.961Z,77.87
2018-01-30T20:58:38.681Z,77.83
2018-01-30T21:01:08.769Z,78.01
2018-01-30T21:03:37.935Z,78.08
2018-01-30T21:06:09.618Z,78.07
2018-01-30T21:08:38.812Z,77.98
2018-01-30T21:11:08.043Z,78.25
2018-01-30T21:13:45.819Z,78.41
2018-01-30T21:16:21.829Z,78.29
2018-01-30T21:18:56.222Z,78.59
2018-01-30T21:21:32.138Z,78.39
2018-01-30T21:24:03.858Z,78.51
2018-01-30T21:26:35.621Z,78.28
2018-01-30T21:29:05.252Z,78.44
2018-01-30T21:31:37.747Z,78.21
2018-01-30T21:34:10.134Z,78.17
2018-01-30T21:36:41.683Z,78.20
2018-01-30T21:39:11.273Z,78.48
2018-01-30T21:41:40.573Z,78.62
2018-01-30T21:44:11.491Z,79.21
2018-01-30T21:46:40.903Z,79.59
2018-01-30T21:49:10.696Z,79.19
2018-01-30T21:51:40.214Z,79.20
2018-01-30T21:54:09.510Z,79.08
2018-01-30T21:56:44.850Z,78.69
2018-01-30T21:59:16.838Z,78.59
2018-01-30T22:01:46.218Z,78.63
2018-01-30T22:04:15.728Z,78.65
2018-01-30T22:06:45.047Z,78.47
2018-01-30T22:09:14.610Z,78.45
2018-01-30T22:11:44.414Z,78.14
2018-01-30T22:14:14.245Z,78.22
2018-01-30T22:16:47.782Z,78.38
2018-01-30T22:19:17.383Z,78.47
2018-01-30T22:21:46.615Z,78.39
2018-01-30T22:24:15.853Z,78.16
2018-01-30T22:26:45.404Z,78.08
2018-01-30T22:29:14.675Z,78.06
2018-01-30T22:31:43.965Z,77.96
2018-01-30T22:34:13.471Z,77.87
2018-01-30T22:36:44.332Z,77.57
2018-01-30T22:39:13.548Z,77.50
2018-01-30T22:41:43.294Z,77.26
2018-01-30T22:44:12.586Z,77.30
2018-01-30T22:46:41.795Z,77.96
